• Join FlightAware (Why Join?)
  • Login
  • US Flag 
04:51PM EDT


 

Airport Tracker/Info


-or-


 

Live Flight TrackerFlight Track Log ✈ N789EX ✈ 14-Nov-2013 ✈ KMWH - KBFI

Flight Track Log - Related Links

Times and Time Zones

All times are in EST time to prevent confusion due to time zone crossing. See the N789EX flight status page for this flight to view local times or setup timezone preferences in your user account.

Time Position Orientation Groundspeed Altitude Reporting Facility
EST Latitude Longitude Course Direction KTS MPH feet Rate Location/Type
03:28PM 46.9850 -119.7320 230° Southwest 326 375 13,200  Level FlightAware
03:29PM 47.2442 -119.6156 230° Southwest  Level Estimated
03:29PM 46.9540 -119.7730 222° Southwest 331 381 14,400  Level FlightAware
03:29PM 46.9140 -119.8260 222° Southwest 346 398 15,500 1,800 Climbing FlightAware
03:29PM 46.8830 -119.8400 197° South 358 412 16,100 1,800 Climbing FlightAware
03:30PM 46.8290 -119.7910 148° Southeast 372 428 17,300 1,680 Climbing FlightAware
03:30PM 46.8160 -119.7510 115° Southeast 376 433 17,700 1,680 Climbing FlightAware
03:31PM 46.7980 -119.6550 105° East 386 444 18,900 1,860 Climbing FlightAware
03:32PM 46.7740 -119.5000 103° East 398 458 20,800 1,800 Climbing FlightAware
03:33PM 46.7630 -119.4260 102° East 403 464 21,600 1,200 Climbing FlightAware
03:33PM 46.7350 -119.2780 105° East 425 489 22,500 780 Climbing FlightAware
03:34PM 46.7250 -119.1950 100° East 440 506 22,800 300 Climbing FlightAware
03:35PM 46.7000 -119.0030 101° East 478 550 23,000 120 Climbing FlightAware
03:35PM 46.6770 -118.9090 110° East 499 574 23,000  Level FlightAware
03:36PM 46.6430 -118.7730 110° East 503 579 23,000  Level FlightAware
03:37PM 46.6270 -118.6720 103° East 511 588 23,000  Level FlightAware
03:37PM 46.6520 -118.5620 72° East 514 592 23,000  Level FlightAware
03:38PM 46.6910 -118.4550 62° Northeast 512 589 23,000  Level FlightAware
03:39PM 46.7330 -118.3370 63° Northeast 522 601 23,000  Level FlightAware
03:39PM 46.7740 -118.2260 62° Northeast 522 601 23,000  Level FlightAware
03:40PM 46.8060 -118.1360 63° Northeast 522 601 23,000  Level FlightAware
03:40PM 46.8300 -118.0720 61° Northeast 522 601 23,000  Level FlightAware
03:41PM 46.8660 -117.9710 62° Northeast 522 601 23,000  Level FlightAware
03:41PM 46.9020 -117.8730 62° Northeast 522 601 23,000  Level FlightAware
03:42PM 46.9250 -117.8100 62° Northeast 522 601 23,000  Level FlightAware
03:42PM 46.9610 -117.7110 62° Northeast 522 601 23,000 -180 Level FlightAware
03:43PM 47.1039 -117.4658 62° Northeast 526 605 22,800 -60 Descending Seattle Center
03:44PM 47.1833 -117.2897 56° Northeast 524 603 22,900  Climbing Seattle Center
03:45PM 47.2647 -117.1078 57° Northeast 543 625 22,900  Level Seattle Center
03:47PM 47.3411 -116.9258 58° Northeast 536 617 22,900 -60 Level Seattle Center
03:48PM 47.4217 -116.7408 57° Northeast 555 639 22,800 -120 Descending Seattle Center
03:49PM 47.5283 -116.5303 53° Northeast 546 628 22,700 -60 Descending Seattle Center
03:50PM 47.6189 -116.3556 52° Northeast 540 621 22,700 60 Level Seattle Center
03:51PM 47.7506 -116.3342 North 517 595 22,900  Climbing Seattle Center
03:52PM 47.8097 -116.5072 297° West 502 578 22,700  Descending Seattle Center
03:53PM 47.8172 -116.7111 273° West 499 574 22,900  Climbing Seattle Center
03:54PM 47.8242 -116.9147 273° West 500 575 22,700 -120 Descending Seattle Center
03:55PM 47.8311 -117.1186 273° West 501 577 22,700  Level Seattle Center
03:56PM 47.8417 -117.3694 274° West 512 589 22,800  Climbing Seattle Center
03:57PM 47.8503 -117.5814 274° West 518 596 22,800  Level Seattle Center
03:58PM 47.8594 -117.7933 274° West 518 596 22,800 -60 Level Seattle Center
03:59PM 47.8711 -118.0097 275° West 524 603 22,700 -60 Descending Seattle Center
04:00PM 47.8828 -118.2253 275° West 525 604 22,700 -60 Level Seattle Center
04:01PM 47.8978 -118.4433 276° West 529 609 22,600 -60 Descending Seattle Center
04:02PM 47.9089 -118.6636 274° West 534 615 22,600  Level Seattle Center
04:03PM 47.9139 -118.8839 272° West 535 616 22,600 -120 Level Seattle Center
04:08PM 47.9730 -120.0990 272° West 514 592 22,200 -60 Descending FlightAware
04:10PM 47.9980 -120.3770 278° West 507 583 22,500 120 Climbing FlightAware
04:10PM 48.0040 -120.4500 277° West 508 585 22,500  Level FlightAware
04:11PM 48.0250 -120.7140 277° West 506 582 22,500  Level FlightAware
04:12PM 48.0350 -120.8350 277° West 508 585 22,500 60 Level FlightAware
04:12PM 48.0460 -120.9740 277° West 508 585 22,600 1,020 Climbing FlightAware
04:13PM 48.0560 -121.1150 276° West 507 583 23,900 720 Climbing FlightAware
04:14PM 48.0750 -121.3790 276° West 513 590 24,000  Climbing FlightAware
04:15PM 48.0860 -121.5750 275° West 528 608 23,900 -600 Descending FlightAware
04:16PM 48.0640 -121.6350 241° Southwest 548 631 23,300 -120 Descending FlightAware
04:16PM 47.9850 -121.6760 199° South 533 613 23,800 180 Climbing FlightAware
04:17PM 47.9150 -121.6380 160° South 492 566 23,500 -420 Descending FlightAware
04:17PM 47.9100 -121.5470 95° East 450 518 23,400 -240 Descending FlightAware
04:18PM 47.9600 -121.5000 32° Northeast 455 524 23,300 -300 Descending FlightAware
04:19PM 48.0280 -121.3900 47° Northeast 431 496 23,000 -180 Descending FlightAware
04:20PM 48.0760 -121.2010 69° East 438 504 23,000  Level FlightAware
04:20PM 48.0860 -121.1290 78° East 448 516 23,000  Level FlightAware
04:21PM 48.0760 -121.0340 99° East 452 520 23,000  Level FlightAware
04:21PM 48.0650 -120.9460 101° East 449 517 23,000  Level FlightAware
04:22PM 48.0460 -120.7530 98° East 436 502 23,000  Level FlightAware
04:23PM 48.0440 -120.6480 92° East 436 502 23,000  Level FlightAware
04:24PM 48.0320 -120.4530 95° East 419 482 23,000  Level FlightAware
04:25PM 48.0240 -120.3110 95° East 386 444 23,000  Level FlightAware
04:25PM 48.0170 -120.1890 95° East 326 375 23,000  Level FlightAware
04:26PM 48.0110 -120.0850 95° East 322 371 23,000  Level FlightAware
04:27PM 48.0040 -119.9640 95° East 312 359 23,000  Level FlightAware
04:28PM 48.0010 -119.9000 94° East 312 359 23,000  Level FlightAware
04:29PM 47.9970 -119.8100 94° East 312 359 23,000  Level FlightAware
04:30PM 47.9930 -119.7200 94° East 312 359 23,000  Level FlightAware
04:31PM 47.9880 -119.6110 94° East 312 359 23,000  Level FlightAware
04:31PM 47.9781 -119.4411 94° East 320 368 23,000  Level Seattle Center
04:32PM 47.9750 -119.3078 92° East 322 371 23,000  Level Seattle Center
04:33PM 47.9683 -119.1711 94° East 326 375 23,000  Level Seattle Center
04:34PM 47.9597 -119.0344 95° East 330 380 23,000  Level Seattle Center
04:35PM 47.9483 -118.8956 97° East 334 384 23,000 -60 Level Seattle Center
04:36PM 47.9386 -118.7569 96° East 337 388 22,900  Descending Seattle Center
04:37PM 47.9308 -118.6178 95° East 337 388 23,000  Climbing Seattle Center
04:38PM 47.9228 -118.4800 95° East 335 386 23,000  Level Seattle Center
04:39PM 47.9164 -118.3372 94° East 343 395 23,000 -60 Level Seattle Center
04:40PM 47.9089 -118.1956 94° East 344 396 22,900  Descending Seattle Center
04:41PM 47.9017 -118.0214 93° East 349 402 23,000  Climbing Seattle Center
04:42PM 47.8953 -117.8811 94° East 343 395 23,000  Level Seattle Center
04:43PM 47.8886 -117.7425 94° East 337 388 23,000  Level Seattle Center
04:45PM 47.8797 -117.6019 95° East 340 391 23,000  Level Seattle Center
04:46PM 47.8708 -117.4575 95° East 346 398 23,000  Level Seattle Center
04:47PM 47.8603 -117.3156 96° East 345 397 23,000  Level Seattle Center
04:48PM 47.8494 -117.1769 97° East 339 390 23,000  Level Seattle Center
04:49PM 47.8383 -117.0383 97° East 335 386 23,000  Level Seattle Center
04:50PM 47.8272 -116.8947 97° East 343 395 23,000  Level Seattle Center
04:51PM 47.8161 -116.7514 97° East 346 398 23,000 -60 Level Seattle Center
04:52PM 47.8050 -116.6067 96° East 349 402 22,900 -360 Descending Seattle Center
04:53PM 47.7944 -116.4631 96° East 350 403 22,300 -480 Descending Seattle Center
04:54PM 47.7831 -116.3222 97° East 345 397 22,000 -180 Descending Seattle Center
04:55PM 47.7619 -116.1844 103° East 342 394 22,000  Level Seattle Center
04:56PM 47.7364 -116.0453 105° East 347 399 22,000  Level Seattle Center
04:57PM 47.7881 -115.9303 56° Northeast 336 387 22,000  Level Seattle Center
04:58PM 47.8314 -116.0383 301° West 333 383 22,000  Level Seattle Center
04:59PM 47.8372 -116.1747 274° West 331 381 22,000 -120 Level Seattle Center
05:00PM 47.8414 -116.3111 273° West 331 381 21,800 -180 Descending Seattle Center
05:01PM 47.8481 -116.4453 274° West 329 379 21,700 60 Descending Seattle Center
05:02PM 47.8564 -116.5836 275° West 333 383 22,000 60 Climbing Seattle Center
05:03PM 47.8636 -116.7292 274° West 349 402 21,900 -60 Descending Seattle Center
05:04PM 47.8681 -116.8736 273° West 352 405 21,900  Level Seattle Center
05:05PM 47.8781 -117.0539 275° West 366 421 21,900 120 Level Seattle Center
05:06PM 47.8850 -117.2150 274° West 388 447 22,200  Climbing Seattle Center
05:07PM 47.8933 -117.3756 274° West 393 452 22,000 -180 Descending Seattle Center
05:08PM 47.9050 -117.5458 276° West 409 471 21,900 -180 Descending Seattle Center
05:09PM 47.9153 -117.7172 275° West 418 481 21,700  Descending Seattle Center
05:10PM 47.9261 -117.8908 275° West 421 484 21,900 120 Climbing Seattle Center
05:11PM 47.9344 -118.0744 274° West 440 506 22,000  Climbing Seattle Center
05:12PM 47.9425 -118.2583 274° West 447 514 21,900  Descending Seattle Center
05:13PM 47.9556 -118.4847 275° West 455 524 22,000 -60 Climbing Seattle Center
05:14PM 47.9656 -118.6839 274° West 474 545 21,800 -120 Descending Seattle Center
05:15PM 47.9731 -118.8847 273° West 482 555 21,800  Level Seattle Center
05:16PM 47.9797 -119.0875 273° West 486 559 21,900  Climbing Seattle Center
05:21PM 48.0080 -120.1540 273° West 21,800 -60 Descending FlightAware
05:22PM 48.0170 -120.3470 274° West 514 592 21,800 60 Level FlightAware
05:23PM 48.0200 -120.4480 273° West 490 564 21,900 120 Climbing FlightAware
05:24PM 48.0280 -120.6360 274° West 419 482 22,000  Climbing FlightAware
05:24PM 48.0340 -120.7340 275° West 385 443 21,900  Descending FlightAware
05:25PM 48.0450 -120.8370 279° West 364 419 22,000  Climbing FlightAware
05:25PM 48.0350 -120.9090 258° West 382 440 21,900 -2,400 Descending FlightAware
05:26PM 48.0070 -121.0270 251° West 420 483 19,200 -2,820 Descending FlightAware
05:27PM 47.9860 -121.1240 252° West 409 471 18,100 -1,740 Descending FlightAware
05:27PM 47.9600 -121.2560 254° West 388 447 16,800 -1,860 Descending FlightAware
05:28PM 47.9550 -121.3350 265° West 381 438 15,700 -2,640 Descending FlightAware
05:29PM 47.9330 -121.4750 257° West 373 429 13,100 -2,280 Descending FlightAware
05:30PM 47.9140 -121.5710 254° West 354 407 12,100 -1,380 Descending FlightAware
05:31PM 47.8850 -121.7030 252° West 312 359 10,800 -900 Descending FlightAware
05:31PM 47.8740 -121.7620 254° West 276 318 10,800 -840 Level FlightAware
05:32PM 47.8640 -121.8150 254° West 269 310 10,000 -1,980 Descending FlightAware
05:32PM 47.8560 -121.8580 255° West 271 312 9,100 -1,980 Descending FlightAware
05:32PM 47.8480 -121.9030 255° West 270 311 8,400 -1,560 Descending FlightAware
05:33PM 47.8400 -121.9400 252° West 264 304 7,900 -1,800 Descending FlightAware
05:33PM 47.8210 -122.0010 245° Southwest 261 300 6,600 -2,100 Descending FlightAware
05:34PM 47.8080 -122.0430 245° Southwest 257 296 5,700 -2,100 Descending FlightAware
05:34PM 47.7920 -122.0790 237° Southwest 255 293 4,900 -1,920 Descending FlightAware
05:35PM 47.7680 -122.1280 234° Southwest 252 290 3,800 -1,920 Descending FlightAware
05:35PM 47.7530 -122.1710 243° Southwest 251 289 2,900 -1,260 Descending FlightAware
05:36PM 47.7470 -122.2190 259° West 235 270 2,600 -660 Descending FlightAware
05:36PM 47.7440 -122.2630 264° West 217 250 2,300 -600 Descending FlightAware
05:37PM 47.7400 -122.3170 264° West 214 246 2,000 -360 Descending FlightAware
05:37PM 47.7390 -122.3400 266° West 216 249 2,000  Level FlightAware
05:38PM 47.7280 -122.3770 246° West 214 246 2,000  Level FlightAware
05:38PM 47.7160 -122.4020 235° Southwest 206 237 2,000  Level FlightAware
05:38PM 47.6910 -122.4210 207° Southwest 213 245 2,000  Level FlightAware
05:39PM 47.6590 -122.4120 169° South 212 244 2,000  Level FlightAware
05:39PM 47.6350 -122.3910 149° Southeast 203 234 2,000  Level FlightAware
05:40PM 47.6160 -122.3750 150° Southeast 203 234 2,000 -840 Level FlightAware
05:40PM 47.6150 -122.3740 146° Southeast 184 212 1,600 -900 Descending FlightAware
05:40PM 47.5990 -122.3610 151° Southeast 184 212 1,600 -1,080 Level FlightAware
05:41PM 47.6590 -122.4120 330° Northwest 212 244 800 -1,020 Descending FlightAware
05:41PM 47.6400 -122.3950 149° Southeast 212 244 800 -420 Level FlightAware
05:43PM 47.5092 -122.2850 149° Southeast 171 197 100 -540 Descending Seattle Center